sensor_id;sensor_type;location;lat;lon;timestamp;pressure;altitude;pressure_sealevel;temperature;humidity
62374;BME280;48409;49.030;1.820;2023-02-19T00:01:41;101774.31;;;12.41;65.53
62374;BME280;48409;49.030;1.820;2023-02-19T00:04:08;101777.84;;;12.40;65.51
62374;BME280;48409;49.030;1.820;2023-02-19T00:06:35;101781.34;;;12.40;65.57
62374;BME280;48409;49.030;1.820;2023-02-19T00:09:00;101782.28;;;12.39;65.58
62374;BME280;48409;49.030;1.820;2023-02-19T00:11:27;101781.41;;;12.39;65.58
62374;BME280;48409;49.030;1.820;2023-02-19T00:13:53;101795.53;;;12.38;65.75
62374;BME280;48409;49.030;1.820;2023-02-19T00:16:20;101793.81;;;12.37;65.60
62374;BME280;48409;49.030;1.820;2023-02-19T00:18:46;101788.53;;;12.37;65.69
62374;BME280;48409;49.030;1.820;2023-02-19T00:21:12;101787.66;;;12.36;65.69
62374;BME280;48409;49.030;1.820;2023-02-19T00:23:40;101787.66;;;12.36;65.66
62374;BME280;48409;49.030;1.820;2023-02-19T00:26:10;101783.31;;;12.35;65.79
62374;BME280;48409;49.030;1.820;2023-02-19T00:28:38;101777.16;;;12.35;65.68
62374;BME280;48409;49.030;1.820;2023-02-19T00:31:17;101780.72;;;12.34;65.60
62374;BME280;48409;49.030;1.820;2023-02-19T00:33:43;101777.19;;;12.33;65.56
62374;BME280;48409;49.030;1.820;2023-02-19T00:36:08;101776.34;;;12.33;65.63
62374;BME280;48409;49.030;1.820;2023-02-19T00:38:37;101776.34;;;12.33;65.55
62374;BME280;48409;49.030;1.820;2023-02-19T00:41:02;101766.72;;;12.32;65.75
62374;BME280;48409;49.030;1.820;2023-02-19T00:46:11;101779.94;;;12.32;65.60
62374;BME280;48409;49.030;1.820;2023-02-19T00:48:38;101791.38;;;12.31;65.77
62374;BME280;48409;49.030;1.820;2023-02-19T00:51:04;101779.94;;;12.32;65.66
62374;BME280;48409;49.030;1.820;2023-02-19T00:53:29;101774.63;;;12.32;65.74
62374;BME280;48409;49.030;1.820;2023-02-19T00:55:54;101778.19;;;12.31;65.65
62374;BME280;48409;49.030;1.820;2023-02-19T00:58:20;101778.19;;;12.31;65.74
62374;BME280;48409;49.030;1.820;2023-02-19T01:00:45;101772.06;;;12.30;65.77
62374;BME280;48409;49.030;1.820;2023-02-19T01:03:10;101765.88;;;12.30;65.67
62374;BME280;48409;49.030;1.820;2023-02-19T01:05:35;101769.47;;;12.29;65.68
62374;BME280;48409;49.030;1.820;2023-02-19T01:08:01;101771.19;;;12.30;65.66
62374;BME280;48409;49.030;1.820;2023-02-19T01:10:26;101758.91;;;12.29;65.73
62374;BME280;48409;49.030;1.820;2023-02-19T01:12:51;101758.91;;;12.29;65.73
62374;BME280;48409;49.030;1.820;2023-02-19T01:15:20;101767.75;;;12.27;65.78
62374;BME280;48409;49.030;1.820;2023-02-19T01:17:45;101764.28;;;12.25;65.79
62374;BME280;48409;49.030;1.820;2023-02-19T01:20:10;101772.19;;;12.25;65.79
62374;BME280;48409;49.030;1.820;2023-02-19T01:22:35;101768.78;;;12.23;65.89
62374;BME280;48409;49.030;1.820;2023-02-19T01:25:01;101761.63;;;12.25;65.85
62374;BME280;48409;49.030;1.820;2023-02-19T01:27:28;101774.84;;;12.25;65.71
62374;BME280;48409;49.030;1.820;2023-02-19T01:29:53;101767.84;;;12.24;65.78
62374;BME280;48409;49.030;1.820;2023-02-19T01:32:19;101766.13;;;12.23;65.73
62374;BME280;48409;49.030;1.820;2023-02-19T01:34:44;101766.97;;;12.24;65.84
62374;BME280;48409;49.030;1.820;2023-02-19T01:37:09;101767.91;;;12.23;65.83
62374;BME280;48409;49.030;1.820;2023-02-19T01:39:36;101764.41;;;12.22;65.88
62374;BME280;48409;49.030;1.820;2023-02-19T01:42:04;101765.31;;;12.21;65.84
62374;BME280;48409;49.030;1.820;2023-02-19T01:46:55;101768.81;;;12.22;65.81
62374;BME280;48409;49.030;1.820;2023-02-19T01:49:33;101767.09;;;12.21;65.84
62374;BME280;48409;49.030;1.820;2023-02-19T01:52:01;101770.59;;;12.21;65.77
62374;BME280;48409;49.030;1.820;2023-02-19T01:54:29;101771.50;;;12.20;65.84
62374;BME280;48409;49.030;1.820;2023-02-19T01:56:56;101782.06;;;12.20;65.72
62374;BME280;48409;49.030;1.820;2023-02-19T01:59:21;101777.66;;;12.21;65.87
62374;BME280;48409;49.030;1.820;2023-02-19T02:01:47;101787.34;;;12.20;65.75
62374;BME280;48409;49.030;1.820;2023-02-19T02:04:12;101790.91;;;12.19;65.80
62374;BME280;48409;49.030;1.820;2023-02-19T02:06:47;101788.22;;;12.21;65.84
62374;BME280;48409;49.030;1.820;2023-02-19T02:09:13;101792.63;;;12.20;65.85
62374;BME280;48409;49.030;1.820;2023-02-19T02:11:57;101791.72;;;12.21;65.70
62374;BME280;48409;49.030;1.820;2023-02-19T02:14:24;101796.22;;;12.19;65.92
62374;BME280;48409;49.030;1.820;2023-02-19T02:32:05;101791.91;;;12.17;65.96
62374;BME280;48409;49.030;1.820;2023-02-19T02:34:41;101794.50;;;12.18;66.01
62374;BME280;48409;49.030;1.820;2023-02-19T02:37:09;101791.91;;;12.17;65.91
62374;BME280;48409;49.030;1.820;2023-02-19T02:39:35;101798.91;;;12.18;65.93
62374;BME280;48409;49.030;1.820;2023-02-19T02:42:00;101798.03;;;12.17;65.96
62374;BME280;48409;49.030;1.820;2023-02-19T02:44:44;101804.22;;;12.16;65.87
62374;BME280;48409;49.030;1.820;2023-02-19T02:47:30;101806.00;;;12.16;65.92
62374;BME280;48409;49.030;1.820;2023-02-19T02:50:14;101800.72;;;12.16;66.00
62374;BME280;48409;49.030;1.820;2023-02-19T02:52:42;101799.88;;;12.15;65.93
62374;BME280;48409;49.030;1.820;2023-02-19T02:55:28;101803.44;;;12.14;65.91
62374;BME280;48409;49.030;1.820;2023-02-19T02:57:55;101801.69;;;12.13;65.93
62374;BME280;48409;49.030;1.820;2023-02-19T03:00:20;101800.84;;;12.12;65.89
62374;BME280;48409;49.030;1.820;2023-02-19T03:02:47;101804.31;;;12.13;65.77
62374;BME280;48409;49.030;1.820;2023-02-19T03:05:17;101814.00;;;12.14;65.85
62374;BME280;48409;49.030;1.820;2023-02-19T03:08:04;101818.44;;;12.12;65.96
62374;BME280;48409;49.030;1.820;2023-02-19T03:10:53;101805.25;;;12.12;65.86
62374;BME280;48409;49.030;1.820;2023-02-19T03:16:09;101807.09;;;12.10;65.84
62374;BME280;48409;49.030;1.820;2023-02-19T03:18:54;101802.72;;;12.09;65.91
62374;BME280;48409;49.030;1.820;2023-02-19T03:21:40;101805.34;;;12.09;65.90
62374;BME280;48409;49.030;1.820;2023-02-19T03:24:07;101810.63;;;12.09;65.93
62374;BME280;48409;49.030;1.820;2023-02-19T03:26:53;101801.03;;;12.06;65.94
62374;BME280;48409;49.030;1.820;2023-02-19T03:29:20;101804.56;;;12.07;65.88
62374;BME280;48409;49.030;1.820;2023-02-19T03:31:47;101797.50;;;12.07;65.96
62374;BME280;48409;49.030;1.820;2023-02-19T03:34:19;101789.63;;;12.06;65.96
62374;BME280;48409;49.030;1.820;2023-02-19T03:36:52;101785.25;;;12.05;65.95
62374;BME280;48409;49.030;1.820;2023-02-19T03:39:19;101787.00;;;12.06;65.96
62374;BME280;48409;49.030;1.820;2023-02-19T03:41:56;101786.13;;;12.04;65.95
62374;BME280;48409;49.030;1.820;2023-02-19T03:44:45;101780.00;;;12.03;65.85
62374;BME280;48409;49.030;1.820;2023-02-19T03:47:26;101786.13;;;12.04;65.97
62374;BME280;48409;49.030;1.820;2023-02-19T03:54:51;101779.22;;;11.99;65.83
62374;BME280;48409;49.030;1.820;2023-02-19T04:05:13;101793.34;;;11.98;65.84
62374;BME280;48409;49.030;1.820;2023-02-19T04:07:42;101803.13;;;11.96;65.87
62374;BME280;48409;49.030;1.820;2023-02-19T04:10:09;101803.06;;;11.98;65.77
62374;BME280;48409;49.030;1.820;2023-02-19T04:12:36;101811.03;;;11.96;65.86
62374;BME280;48409;49.030;1.820;2023-02-19T04:15:06;101811.03;;;11.96;65.74
62374;BME280;48409;49.030;1.820;2023-02-19T04:17:44;101820.72;;;11.96;65.76
62374;BME280;48409;49.030;1.820;2023-02-19T04:20:11;101825.13;;;11.95;65.86
62374;BME280;48409;49.030;1.820;2023-02-19T04:22:38;101826.00;;;11.96;65.90
62374;BME280;48409;49.030;1.820;2023-02-19T04:25:04;101821.69;;;11.93;65.97
62374;BME280;48409;49.030;1.820;2023-02-19T04:27:29;101812.84;;;11.94;65.87
62374;BME280;48409;49.030;1.820;2023-02-19T04:29:54;101820.81;;;11.93;65.91
62374;BME280;48409;49.030;1.820;2023-02-19T04:32:20;101821.75;;;11.92;65.85
62374;BME280;48409;49.030;1.820;2023-02-19T04:34:45;101824.38;;;11.92;65.93
62374;BME280;48409;49.030;1.820;2023-02-19T04:37:10;101814.69;;;11.92;65.92
62374;BME280;48409;49.030;1.820;2023-02-19T04:39:36;101823.50;;;11.91;65.77
62374;BME280;48409;49.030;1.820;2023-02-19T04:42:01;101827.03;;;11.92;65.91
62374;BME280;48409;49.030;1.820;2023-02-19T04:44:26;101833.19;;;11.92;66.04
62374;BME280;48409;49.030;1.820;2023-02-19T04:46:52;101827.06;;;11.90;66.05
62374;BME280;48409;49.030;1.820;2023-02-19T04:49:17;101842.06;;;11.90;65.90
62374;BME280;48409;49.030;1.820;2023-02-19T04:51:43;101842.91;;;11.90;66.04
62374;BME280;48409;49.030;1.820;2023-02-19T04:54:08;101843.84;;;11.89;65.94
62374;BME280;48409;49.030;1.820;2023-02-19T04:56:33;101842.13;;;11.88;65.92
62374;BME280;48409;49.030;1.820;2023-02-19T04:58:58;101857.03;;;11.89;66.02
62374;BME280;48409;49.030;1.820;2023-02-19T05:01:24;101858.75;;;11.90;66.02
62374;BME280;48409;49.030;1.820;2023-02-19T05:03:49;101868.47;;;11.90;65.95
62374;BME280;48409;49.030;1.820;2023-02-19T05:06:15;101847.41;;;11.88;65.99
62374;BME280;48409;49.030;1.820;2023-02-19T05:08:40;101858.81;;;11.88;65.96
62374;BME280;48409;49.030;1.820;2023-02-19T05:11:06;101868.53;;;11.88;66.06
62374;BME280;48409;49.030;1.820;2023-02-19T05:13:32;101872.88;;;11.89;66.07
62374;BME280;48409;49.030;1.820;2023-02-19T05:16:02;101880.84;;;11.87;66.01
62374;BME280;48409;49.030;1.820;2023-02-19T05:18:28;101880.00;;;11.87;66.02
62374;BME280;48409;49.030;1.820;2023-02-19T05:20:54;101874.72;;;11.87;66.11
62374;BME280;48409;49.030;1.820;2023-02-19T05:23:21;101885.28;;;11.87;66.08
62374;BME280;48409;49.030;1.820;2023-02-19T05:25:46;101889.63;;;11.88;66.10
62374;BME280;48409;49.030;1.820;2023-02-19T05:28:11;101891.41;;;11.87;65.94
62374;BME280;48409;49.030;1.820;2023-02-19T05:30:48;101887.00;;;11.88;66.01
62374;BME280;48409;49.030;1.820;2023-02-19T05:33:14;101887.00;;;11.88;66.05
62374;BME280;48409;49.030;1.820;2023-02-19T05:35:40;101900.19;;;11.88;66.15
62374;BME280;48409;49.030;1.820;2023-02-19T05:38:05;101908.13;;;11.88;66.13
62374;BME280;48409;49.030;1.820;2023-02-19T05:40:34;101905.47;;;11.88;65.99
62374;BME280;48409;49.030;1.820;2023-02-19T05:42:59;101908.13;;;11.88;66.12
62374;BME280;48409;49.030;1.820;2023-02-19T05:45:24;101908.13;;;11.88;66.14
62374;BME280;48409;49.030;1.820;2023-02-19T05:47:50;101913.41;;;11.88;66.10
62374;BME280;48409;49.030;1.820;2023-02-19T05:50:15;101910.72;;;11.90;66.17
62374;BME280;48409;49.030;1.820;2023-02-19T05:52:40;101908.13;;;11.88;66.14
62374;BME280;48409;49.030;1.820;2023-02-19T05:55:07;101912.47;;;11.89;66.09
62374;BME280;48409;49.030;1.820;2023-02-19T05:57:32;101910.75;;;11.88;66.15
62374;BME280;48409;49.030;1.820;2023-02-19T05:59:58;101909.84;;;11.89;66.02
62374;BME280;48409;49.030;1.820;2023-02-19T06:02:23;101910.72;;;11.90;65.99
62374;BME280;48409;49.030;1.820;2023-02-19T06:04:48;101909.84;;;11.89;66.12
62374;BME280;48409;49.030;1.820;2023-02-19T06:07:13;101906.28;;;11.90;66.25
62374;BME280;48409;49.030;1.820;2023-02-19T06:09:39;101901.00;;;11.90;66.14
62374;BME280;48409;49.030;1.820;2023-02-19T06:12:04;101906.28;;;11.90;66.21
62374;BME280;48409;49.030;1.820;2023-02-19T06:14:29;101906.28;;;11.90;66.03
62374;BME280;48409;49.030;1.820;2023-02-19T06:16:55;101918.56;;;11.91;66.17
62374;BME280;48409;49.030;1.820;2023-02-19T06:19:20;101921.19;;;11.91;66.15
62374;BME280;48409;49.030;1.820;2023-02-19T06:21:45;101929.13;;;11.91;66.15
62374;BME280;48409;49.030;1.820;2023-02-19T06:24:13;101920.31;;;11.92;66.18
62374;BME280;48409;49.030;1.820;2023-02-19T06:26:39;101921.19;;;11.91;66.20
62374;BME280;48409;49.030;1.820;2023-02-19T06:29:04;101930.88;;;11.92;66.07
62374;BME280;48409;49.030;1.820;2023-02-19T06:31:29;101925.59;;;11.92;66.18
62374;BME280;48409;49.030;1.820;2023-02-19T06:33:54;101930.88;;;11.92;66.03
62374;BME280;48409;49.030;1.820;2023-02-19T06:36:20;101927.34;;;11.92;66.21
62374;BME280;48409;49.030;1.820;2023-02-19T06:38:59;101934.41;;;11.91;66.26
62374;BME280;48409;49.030;1.820;2023-02-19T06:41:25;101944.06;;;11.92;66.21
62374;BME280;48409;49.030;1.820;2023-02-19T06:43:50;101939.69;;;11.91;66.10
62374;BME280;48409;49.030;1.820;2023-02-19T06:46:16;101952.00;;;11.92;66.11
62374;BME280;48409;49.030;1.820;2023-02-19T06:48:41;101945.78;;;11.93;66.19
62374;BME280;48409;49.030;1.820;2023-02-19T06:51:08;101953.72;;;11.93;66.12
62374;BME280;48409;49.030;1.820;2023-02-19T06:53:35;101946.72;;;11.92;66.05
62374;BME280;48409;49.030;1.820;2023-02-19T06:58:25;101969.56;;;11.93;66.11
62374;BME280;48409;49.030;1.820;2023-02-19T07:00:52;101959.00;;;11.93;66.21
62374;BME280;48409;49.030;1.820;2023-02-19T07:03:17;101962.50;;;11.94;66.22
62374;BME280;48409;49.030;1.820;2023-02-19T07:05:43;101952.00;;;11.92;66.16
62374;BME280;48409;49.030;1.820;2023-02-19T07:08:08;101965.16;;;11.94;66.00
62374;BME280;48409;49.030;1.820;2023-02-19T07:10:33;101955.47;;;11.93;66.19
62374;BME280;48409;49.030;1.820;2023-02-19T07:12:59;101961.63;;;11.93;66.19
62374;BME280;48409;49.030;1.820;2023-02-19T07:15:24;101959.00;;;11.93;66.13
62374;BME280;48409;49.030;1.820;2023-02-19T07:17:49;101971.28;;;11.94;66.15
62374;BME280;48409;49.030;1.820;2023-02-19T07:20:14;101962.56;;;11.92;66.19
62374;BME280;48409;49.030;1.820;2023-02-19T07:22:40;101966.03;;;11.93;66.09
62374;BME280;48409;49.030;1.820;2023-02-19T07:25:08;101967.84;;;11.92;66.19
62374;BME280;48409;49.030;1.820;2023-02-19T07:27:33;101970.47;;;11.92;66.08
62374;BME280;48409;49.030;1.820;2023-02-19T07:29:58;101978.41;;;11.92;66.20
62374;BME280;48409;49.030;1.820;2023-02-19T07:32:23;101974.88;;;11.92;66.10
62374;BME280;48409;49.030;1.820;2023-02-19T07:34:49;101985.41;;;11.93;66.12
62374;BME280;48409;49.030;1.820;2023-02-19T07:37:14;101985.41;;;11.93;66.18
62374;BME280;48409;49.030;1.820;2023-02-19T07:39:41;101988.97;;;11.92;66.35
62374;BME280;48409;49.030;1.820;2023-02-19T07:42:07;101992.47;;;11.91;66.11
62374;BME280;48409;49.030;1.820;2023-02-19T07:44:32;102000.38;;;11.93;66.25
62374;BME280;48409;49.030;1.820;2023-02-19T07:46:57;102009.19;;;11.92;66.27
62374;BME280;48409;49.030;1.820;2023-02-19T07:49:23;102014.44;;;11.93;66.10
62374;BME280;48409;49.030;1.820;2023-02-19T07:51:48;102011.81;;;11.93;66.33
62374;BME280;48409;49.030;1.820;2023-02-19T07:54:13;102017.97;;;11.94;66.33
62374;BME280;48409;49.030;1.820;2023-02-19T07:56:38;102029.38;;;11.94;66.30
62374;BME280;48409;49.030;1.820;2023-02-19T07:59:04;102022.31;;;11.95;66.25
62374;BME280;48409;49.030;1.820;2023-02-19T08:01:29;102020.53;;;11.95;66.31
62374;BME280;48409;49.030;1.820;2023-02-19T08:04:13;102024.09;;;11.94;66.28
62374;BME280;48409;49.030;1.820;2023-02-19T08:06:39;102024.91;;;11.96;66.38
62374;BME280;48409;49.030;1.820;2023-02-19T08:09:04;102028.44;;;11.95;66.32
62374;BME280;48409;49.030;1.820;2023-02-19T08:11:30;102031.91;;;11.97;66.44
62374;BME280;48409;49.030;1.820;2023-02-19T08:14:13;102031.00;;;11.98;66.38
62374;BME280;48409;49.030;1.820;2023-02-19T08:16:39;102032.72;;;11.99;66.36
62374;BME280;48409;49.030;1.820;2023-02-19T08:19:04;102031.00;;;11.98;66.37
62374;BME280;48409;49.030;1.820;2023-02-19T08:21:32;102039.75;;;12.00;66.47
62374;BME280;48409;49.030;1.820;2023-02-19T08:23:57;102049.38;;;12.03;66.48
62374;BME280;48409;49.030;1.820;2023-02-19T08:26:22;102038.84;;;12.01;66.51
62374;BME280;48409;49.030;1.820;2023-02-19T08:28:47;102029.06;;;12.04;66.55
62374;BME280;48409;49.030;1.820;2023-02-19T08:31:13;102028.19;;;12.05;66.50
62374;BME280;48409;49.030;1.820;2023-02-19T08:33:38;102037.88;;;12.06;66.49
62374;BME280;48409;49.030;1.820;2023-02-19T08:36:07;102036.94;;;12.07;66.52
62374;BME280;48409;49.030;1.820;2023-02-19T08:38:33;102032.59;;;12.06;66.57
62374;BME280;48409;49.030;1.820;2023-02-19T08:41:02;102039.56;;;12.08;66.51
62374;BME280;48409;49.030;1.820;2023-02-19T08:43:27;102034.19;;;12.11;66.56
62374;BME280;48409;49.030;1.820;2023-02-19T08:45:53;102035.94;;;12.11;66.47
62374;BME280;48409;49.030;1.820;2023-02-19T08:48:19;102030.56;;;12.14;66.62
62374;BME280;48409;49.030;1.820;2023-02-19T08:50:44;102027.94;;;12.14;66.49
62374;BME280;48409;49.030;1.820;2023-02-19T08:53:09;102028.75;;;12.16;66.63
62374;BME280;48409;49.030;1.820;2023-02-19T08:55:35;102022.50;;;12.19;66.70
62374;BME280;48409;49.030;1.820;2023-02-19T08:58:01;102033.00;;;12.20;66.74
62374;BME280;48409;49.030;1.820;2023-02-19T09:00:26;102039.13;;;12.22;66.69
62374;BME280;48409;49.030;1.820;2023-02-19T09:02:51;102046.97;;;12.24;66.81
62374;BME280;48409;49.030;1.820;2023-02-19T09:05:17;102049.56;;;12.25;66.78
62374;BME280;48409;49.030;1.820;2023-02-19T09:07:44;102054.78;;;12.29;66.66
62374;BME280;48409;49.030;1.820;2023-02-19T09:10:10;102049.50;;;12.29;66.75
62374;BME280;48409;49.030;1.820;2023-02-19T09:12:36;102049.41;;;12.32;66.72
62374;BME280;48409;49.030;1.820;2023-02-19T09:15:02;102046.63;;;12.35;66.81
62374;BME280;48409;49.030;1.820;2023-02-19T09:17:28;102051.88;;;12.36;66.76
62374;BME280;48409;49.030;1.820;2023-02-19T09:19:53;102064.16;;;12.37;66.76
62374;BME280;48409;49.030;1.820;2023-02-19T09:22:19;102052.63;;;12.40;66.86
62374;BME280;48409;49.030;1.820;2023-02-19T09:24:44;102057.81;;;12.43;66.85
62374;BME280;48409;49.030;1.820;2023-02-19T09:27:13;102061.31;;;12.45;66.80
62374;BME280;48409;49.030;1.820;2023-02-19T09:29:39;102059.47;;;12.47;66.83
62374;BME280;48409;49.030;1.820;2023-02-19T09:32:04;102067.34;;;12.49;66.91
62374;BME280;48409;49.030;1.820;2023-02-19T09:34:32;102061.09;;;12.51;66.93
62374;BME280;48409;49.030;1.820;2023-02-19T09:36:57;102065.47;;;12.52;66.87
62374;BME280;48409;49.030;1.820;2023-02-19T09:39:22;102068.00;;;12.56;66.86
62374;BME280;48409;49.030;1.820;2023-02-19T09:41:51;102066.16;;;12.58;66.89
62374;BME280;48409;49.030;1.820;2023-02-19T09:44:29;102066.16;;;12.58;66.79
62374;BME280;48409;49.030;1.820;2023-02-19T09:46:56;102069.63;;;12.60;66.84
62374;BME280;48409;49.030;1.820;2023-02-19T09:49:25;102067.75;;;12.63;66.84
62374;BME280;48409;49.030;1.820;2023-02-19T09:51:54;102065.06;;;12.65;66.76
62374;BME280;48409;49.030;1.820;2023-02-19T09:54:25;102073.88;;;12.65;66.93
62374;BME280;48409;49.030;1.820;2023-02-19T09:56:54;102069.34;;;12.69;66.82
62374;BME280;48409;49.030;1.820;2023-02-19T09:59:24;102072.81;;;12.71;66.78
62374;BME280;48409;49.030;1.820;2023-02-19T10:01:56;102060.38;;;12.73;66.91
62374;BME280;48409;49.030;1.820;2023-02-19T10:04:27;102065.59;;;12.76;66.83
62374;BME280;48409;49.030;1.820;2023-02-19T10:06:56;102070.75;;;12.79;66.86
62374;BME280;48409;49.030;1.820;2023-02-19T10:09:28;102068.94;;;12.82;66.96
62374;BME280;48409;49.030;1.820;2023-02-19T10:11:53;102078.53;;;12.84;66.90
62374;BME280;48409;49.030;1.820;2023-02-19T10:14:36;102081.13;;;12.86;66.83
62374;BME280;48409;49.030;1.820;2023-02-19T10:17:04;102086.34;;;12.89;66.80
62374;BME280;48409;49.030;1.820;2023-02-19T10:19:30;102082.75;;;12.90;66.96
62374;BME280;48409;49.030;1.820;2023-02-19T10:21:56;102085.28;;;12.93;66.78
62374;BME280;48409;49.030;1.820;2023-02-19T10:24:23;102091.41;;;12.95;66.92
62374;BME280;48409;49.030;1.820;2023-02-19T10:26:50;102100.13;;;12.97;66.92
62374;BME280;48409;49.030;1.820;2023-02-19T10:29:18;102106.25;;;12.99;66.87
62374;BME280;48409;49.030;1.820;2023-02-19T10:31:45;102101.75;;;13.01;66.84
62374;BME280;48409;49.030;1.820;2023-02-19T10:34:19;102114.09;;;13.02;66.91
62374;BME280;48409;49.030;1.820;2023-02-19T10:36:46;102118.41;;;13.05;66.82
62374;BME280;48409;49.030;1.820;2023-02-19T10:41:47;102131.47;;;13.10;66.91
62374;BME280;48409;49.030;1.820;2023-02-19T10:44:13;102138.47;;;13.11;66.70
62374;BME280;48409;49.030;1.820;2023-02-19T10:46:44;102140.19;;;13.13;66.81
62374;BME280;48409;49.030;1.820;2023-02-19T10:49:24;102141.91;;;13.14;66.77
62374;BME280;48409;49.030;1.820;2023-02-19T10:51:52;102147.06;;;13.17;66.84
62374;BME280;48409;49.030;1.820;2023-02-19T10:54:19;102147.91;;;13.19;66.84
62374;BME280;48409;49.030;1.820;2023-02-19T10:56:44;102146.13;;;13.20;66.63
62374;BME280;48409;49.030;1.820;2023-02-19T11:01:38;102149.53;;;13.24;66.72
62374;BME280;48409;49.030;1.820;2023-02-19T11:04:16;102158.25;;;13.26;66.76
62374;BME280;48409;49.030;1.820;2023-02-19T11:06:42;102156.44;;;13.28;66.70
62374;BME280;48409;49.030;1.820;2023-02-19T11:12:05;102145.75;;;13.31;66.66
62374;BME280;48409;49.030;1.820;2023-02-19T11:14:34;102144.78;;;13.34;66.75
62374;BME280;48409;49.030;1.820;2023-02-19T11:17:00;102150.84;;;13.37;66.66
62374;BME280;48409;49.030;1.820;2023-02-19T11:19:39;102146.41;;;13.38;66.80
62374;BME280;48409;49.030;1.820;2023-02-19T11:25:02;102151.47;;;13.44;66.79
62374;BME280;48409;49.030;1.820;2023-02-19T11:27:30;102149.63;;;13.46;66.71
62374;BME280;48409;49.030;1.820;2023-02-19T11:30:00;102153.97;;;13.49;66.59
62374;BME280;48409;49.030;1.820;2023-02-19T11:32:41;102166.19;;;13.53;66.69
62374;BME280;48409;49.030;1.820;2023-02-19T11:38:06;102168.69;;;13.57;66.80
62374;BME280;48409;49.030;1.820;2023-02-19T11:43:32;102165.03;;;13.62;66.80
62374;BME280;48409;49.030;1.820;2023-02-19T11:48:36;102172.78;;;13.66;66.69
62374;BME280;48409;49.030;1.820;2023-02-19T11:53:42;102171.69;;;13.72;66.58
62374;BME280;48409;49.030;1.820;2023-02-19T11:56:25;102154.88;;;13.73;66.66
62374;BME280;48409;49.030;1.820;2023-02-19T12:01:35;102159.16;;;13.77;66.48
62374;BME280;48409;49.030;1.820;2023-02-19T12:06:35;102146.63;;;13.82;66.45
62374;BME280;48409;49.030;1.820;2023-02-19T12:09:15;102151.00;;;13.83;66.41
62374;BME280;48409;49.030;1.820;2023-02-19T12:17:09;102157.00;;;13.89;66.40
62374;BME280;48409;49.030;1.820;2023-02-19T12:22:13;102153.41;;;13.90;66.42
62374;BME280;48409;49.030;1.820;2023-02-19T12:38:02;102134.63;;;13.98;66.19
62374;BME280;48409;49.030;1.820;2023-02-19T12:43:17;102139.91;;;13.98;66.02
62374;BME280;48409;49.030;1.820;2023-02-19T12:50:42;102153.22;;;13.96;65.93
62374;BME280;48409;49.030;1.820;2023-02-19T12:53:23;102154.09;;;13.95;65.81
62374;BME280;48409;49.030;1.820;2023-02-19T12:55:50;102137.41;;;13.93;65.78
62374;BME280;48409;49.030;1.820;2023-02-19T12:58:23;102125.91;;;13.94;65.72
62374;BME280;48409;49.030;1.820;2023-02-19T13:00:54;102114.50;;;13.92;65.80
62374;BME280;48409;49.030;1.820;2023-02-19T13:13:48;102098.84;;;13.86;65.53
62374;BME280;48409;49.030;1.820;2023-02-19T13:16:16;102107.72;;;13.84;65.56
62374;BME280;48409;49.030;1.820;2023-02-19T13:18:47;102099.81;;;13.83;65.58
62374;BME280;48409;49.030;1.820;2023-02-19T13:21:16;102097.22;;;13.81;65.64
62374;BME280;48409;49.030;1.820;2023-02-19T13:24:03;102099.06;;;13.79;65.44
62374;BME280;48409;49.030;1.820;2023-02-19T13:29:15;102095.59;;;13.77;65.46
62374;BME280;48409;49.030;1.820;2023-02-19T13:32:07;102089.50;;;13.75;65.25
62374;BME280;48409;49.030;1.820;2023-02-19T13:37:02;102077.19;;;13.74;65.34
62374;BME280;48409;49.030;1.820;2023-02-19T13:39:28;102067.50;;;13.73;65.37
62374;BME280;48409;49.030;1.820;2023-02-19T13:41:54;102059.56;;;13.73;65.15
62374;BME280;48409;49.030;1.820;2023-02-19T13:44:26;102056.13;;;13.71;65.02
62374;BME280;48409;49.030;1.820;2023-02-19T13:46:52;102069.38;;;13.71;65.20
62374;BME280;48409;49.030;1.820;2023-02-19T13:59:36;102040.41;;;13.66;65.00
62374;BME280;48409;49.030;1.820;2023-02-19T14:12:17;102055.44;;;13.66;64.97
62374;BME280;48409;49.030;1.820;2023-02-19T14:14:54;102055.44;;;13.66;64.97
62374;BME280;48409;49.030;1.820;2023-02-19T14:17:40;102053.72;;;13.65;64.75
62374;BME280;48409;49.030;1.820;2023-02-19T14:25:21;102066.03;;;13.66;64.87
62374;BME280;48409;49.030;1.820;2023-02-19T14:27:48;102083.63;;;13.67;64.84
62374;BME280;48409;49.030;1.820;2023-02-19T14:30:14;102081.88;;;13.67;64.77
62374;BME280;48409;49.030;1.820;2023-02-19T14:32:40;102090.66;;;13.68;64.76
62374;BME280;48409;49.030;1.820;2023-02-19T14:35:05;102098.59;;;13.68;64.77
62374;BME280;48409;49.030;1.820;2023-02-19T14:37:33;102088.88;;;13.68;64.79
62374;BME280;48409;49.030;1.820;2023-02-19T14:39:59;102086.19;;;13.70;64.78
62374;BME280;48409;49.030;1.820;2023-02-19T14:42:26;102077.34;;;13.69;64.74
62374;BME280;48409;49.030;1.820;2023-02-19T14:44:58;102064.19;;;13.68;64.75
62374;BME280;48409;49.030;1.820;2023-02-19T14:47:25;102074.66;;;13.71;64.71
62374;BME280;48409;49.030;1.820;2023-02-19T14:49:52;102077.31;;;13.71;64.69
62374;BME280;48409;49.030;1.820;2023-02-19T14:54:52;102087.91;;;13.71;64.55
62374;BME280;48409;49.030;1.820;2023-02-19T14:57:28;102085.25;;;13.71;64.67
62374;BME280;48409;49.030;1.820;2023-02-19T14:59:58;102102.06;;;13.70;64.63
62374;BME280;48409;49.030;1.820;2023-02-19T15:02:23;102107.38;;;13.70;64.48
62374;BME280;48409;49.030;1.820;2023-02-19T15:04:52;102115.31;;;13.70;64.50
62374;BME280;48409;49.030;1.820;2023-02-19T15:07:19;102113.44;;;13.72;64.48
62374;BME280;48409;49.030;1.820;2023-02-19T15:09:53;102110.84;;;13.70;64.52
62374;BME280;48409;49.030;1.820;2023-02-19T15:12:22;102102.13;;;13.68;64.43
62374;BME280;48409;49.030;1.820;2023-02-19T15:14:49;102103.00;;;13.69;64.43